^^
Datos históricos de la estación: Murcia-Puente Tocinos
Diario Informe para Junio 7, 2019 Unidades:  Métrico    Ingés   Ambas
Diario Semanal Mensual Anual
  Máxima: Mínima: Promedio:
Temperatura: 29.7 °C 17.6 °C 23 °C
Punto de rocio: 16.1 °C 5.7 °C 11.9 °C
Humedad: 87% 27.6% 55%
Velocidad viento: 22.1km/h 0km/h 9.4km/h
Racha viento: 40.7km/h - -
Viento- - SSE
Presión: 1016.5 hPa 1009.5 hPa -
Precipitación: 0.0 mm    
 
 
Tabla de datos para Junio 7, 2019
Hora Temperatura Punto de rocio Presión Viento Velocidad viento Racha viento Humedad Intensidad lluvia(por hora) Nubes
00:04 19.3 °C 15.9 °C 1010.1 hPa NE 10.3 km/h 20.4 km/h 81% 0.0 mm
00:09 19.2 °C 15.9 °C 1010.1 hPa NE 10.9 km/h 20.9 km/h 81% 0.0 mm
00:14 19.2 °C 16 °C 1010.1 hPa NE 11.9 km/h 20.9 km/h 81.5% 0.0 mm
00:19 19.2 °C 16.1 °C 1010.2 hPa NE 11.6 km/h 19 km/h 82% 0.0 mm
00:24 19.1 °C 16 °C 1010.2 hPa NE 11.1 km/h 19.3 km/h 82% 0.0 mm
00:29 19.1 °C 15.9 °C 1010.2 hPa NE 11.4 km/h 20.4 km/h 82% 0.0 mm
00:34 19.1 °C 15.9 °C 1010.2 hPa NE 11.9 km/h 20.9 km/h 82% 0.0 mm
00:39 19 °C 15.9 °C 1010.2 hPa NE 11.2 km/h 16.1 km/h 82% 0.0 mm
00:44 18.9 °C 15.8 °C 1010.2 hPa ENE 10 km/h 16.1 km/h 82% 0.0 mm
00:49 18.9 °C 15.9 °C 1010.3 hPa NE 9.4 km/h 14.8 km/h 82.8% 0.0 mm
00:54 18.8 °C 15.9 °C 1010.3 hPa NE 8.4 km/h 17.2 km/h 83% 0.0 mm
00:59 18.8 °C 15.8 °C 1010.3 hPa NE 9 km/h 17.7 km/h 83% 0.0 mm
01:04 18.8 °C 15.8 °C 1010.3 hPa NE 10 km/h 14.5 km/h 83% 0.0 mm
01:09 18.7 °C 15.8 °C 1010.2 hPa NE 8.8 km/h 16.7 km/h 83% 0.0 mm
01:14 18.7 °C 15.8 °C 1010.2 hPa ENE 6.9 km/h 16.1 km/h 83% 0.0 mm
01:19 18.8 °C 15.8 °C 1010.2 hPa ENE 6.9 km/h 12.9 km/h 83% 0.0 mm
01:24 18.8 °C 15.7 °C 1010.0 hPa ENE 6.5 km/h 11.3 km/h 82.1% 0.0 mm
01:29 18.8 °C 15.7 °C 1010.0 hPa ENE 6.5 km/h 11.9 km/h 82% 0.0 mm
01:34 18.9 °C 15.8 °C 1010.0 hPa NE 6.5 km/h 11.3 km/h 82% 0.0 mm
01:39 18.9 °C 15.8 °C 1009.9 hPa ENE 6.2 km/h 10 km/h 82% 0.0 mm
01:44 18.8 °C 15.7 °C 1009.9 hPa NE 5.8 km/h 9.7 km/h 82% 0.0 mm
01:49 18.8 °C 15.6 °C 1009.9 hPa NE 5.8 km/h 9.7 km/h 82% 0.0 mm
01:54 18.7 °C 15.6 °C 1009.8 hPa NE 5.8 km/h 9.7 km/h 82.3% 0.0 mm
01:59 18.6 °C 15.7 °C 1009.8 hPa NE 5.5 km/h 8 km/h 83% 0.0 mm
02:04 18.5 °C 15.5 °C 1009.8 hPa NE 5 km/h 8.4 km/h 83% 0.0 mm
02:09 18.4 °C 15.4 °C 1009.7 hPa NE 5.1 km/h 9.3 km/h 83.1% 0.0 mm
02:14 18.3 °C 15.6 °C 1009.7 hPa NE 5.8 km/h 9.7 km/h 84% 0.0 mm
02:19 18.2 °C 15.5 °C 1009.7 hPa NE 5.5 km/h 10 km/h 84.1% 0.0 mm
02:24 18.1 °C 15.5 °C 1009.7 hPa NE 5 km/h 11.1 km/h 85% 0.0 mm
02:29 17.9 °C 15.4 °C 1009.7 hPa NNE 5.7 km/h 11.3 km/h 85% 0.0 mm
02:34 17.9 °C 15.4 °C 1009.7 hPa NE 6.9 km/h 10 km/h 85.7% 0.0 mm
02:39 17.9 °C 15.5 °C 1009.5 hPa NE 6.9 km/h 10 km/h 86% 0.0 mm
02:44 17.9 °C 15.5 °C 1009.5 hPa NE 6.9 km/h 9.7 km/h 86% 0.0 mm
02:49 17.9 °C 15.5 °C 1009.7 hPa NNE 6.1 km/h 9.7 km/h 86% 0.0 mm
02:54 17.9 °C 15.5 °C 1009.7 hPa NE 4.7 km/h 10 km/h 86.2% 0.0 mm
02:59 17.9 °C 15.7 °C 1009.7 hPa NE 5.4 km/h 10 km/h 87% 0.0 mm
03:04 17.9 °C 15.7 °C 1009.7 hPa NE 6.5 km/h 11.1 km/h 87% 0.0 mm
03:09 17.9 °C 15.7 °C 1009.6 hPa NE 6.2 km/h 11.3 km/h 87% 0.0 mm
03:14 17.8 °C 15.7 °C 1009.6 hPa NE 5.8 km/h 8.4 km/h 86.9% 0.0 mm
03:19 17.8 °C 15.6 °C 1009.7 hPa NE 4.8 km/h 8 km/h 87% 0.0 mm
03:24 17.8 °C 15.6 °C 1009.7 hPa NNO 3.2 km/h 7.4 km/h 87% 0.0 mm
03:29 17.8 °C 15.6 °C 1009.7 hPa NNE 3.2 km/h 8 km/h 87% 0.0 mm
03:34 17.8 °C 15.6 °C 1009.7 hPa NNO 3.2 km/h 8 km/h 87% 0.0 mm
03:39 17.8 °C 15.6 °C 1009.5 hPa NNO 2.8 km/h 6.4 km/h 87% 0.0 mm
03:44 17.8 °C 15.6 °C 1009.5 hPa NNO 2.2 km/h 3.9 km/h 87% 0.0 mm
03:49 17.8 °C 15.6 °C 1009.5 hPa NNO 2.2 km/h 5.8 km/h 87% 0.0 mm
03:54 17.8 °C 15.6 °C 1009.5 hPa NO 2.2 km/h 7.4 km/h 87% 0.0 mm
03:59 17.8 °C 15.6 °C 1009.5 hPa NO 2.5 km/h 8 km/h 87% 0.0 mm
04:04 17.8 °C 15.6 °C 1009.6 hPa NO 2.9 km/h 8 km/h 87% 0.0 mm
04:09 17.8 °C 15.6 °C 1009.6 hPa ONO 3.3 km/h 8 km/h 87% 0.0 mm
04:14 17.8 °C 15.6 °C 1009.6 hPa ONO 3.9 km/h 7.4 km/h 87% 0.0 mm
04:19 17.9 °C 15.7 °C 1009.7 hPa ONO 3.6 km/h 8 km/h 87% 0.0 mm
04:24 17.9 °C 15.7 °C 1009.7 hPa Oeste 3.2 km/h 8 km/h 87% 0.0 mm
04:29 17.9 °C 15.7 °C 1009.7 hPa Oeste 3.2 km/h 8 km/h 87% 0.0 mm
04:34 17.9 °C 15.7 °C 1009.7 hPa Oeste 3.2 km/h 4.8 km/h 87% 0.0 mm
04:39 18.1 °C 15.8 °C 1009.6 hPa Oeste 2 km/h 4.8 km/h 86.5% 0.0 mm
04:44 18.1 °C 15.7 °C 1009.6 hPa Calm   10.3 km/h 85.9% 0.0 mm
04:49 18 °C 15.2 °C 1009.6 hPa Sur 1.4 km/h 11.3 km/h 83.9% 0.0 mm
04:54 17.9 °C 14.8 °C 1009.6 hPa SSE 3.9 km/h 11.9 km/h 82.3% 0.0 mm
04:59 17.8 °C 14.7 °C 1009.6 hPa Sur 5.4 km/h 11.9 km/h 82% 0.0 mm
05:04 17.8 °C 14.5 °C 1009.6 hPa Sur 7.6 km/h 11.9 km/h 81.2% 0.0 mm
05:09 17.8 °C 14.5 °C 1009.5 hPa Sur 7.6 km/h 11.3 km/h 81% 0.0 mm
05:14 17.7 °C 14.6 °C 1009.5 hPa Sur 7.6 km/h 11.3 km/h 81.7% 0.0 mm
05:19 17.7 °C 14.6 °C 1009.6 hPa Sur 7.1 km/h 9.7 km/h 82% 0.0 mm
05:24 17.7 °C 14.8 °C 1009.6 hPa SSO 6.5 km/h 10 km/h 82.9% 0.0 mm
05:29 17.7 °C 14.9 °C 1009.6 hPa SSO 6.5 km/h 10.3 km/h 83.5% 0.0 mm
05:34 17.8 °C 15.1 °C 1009.7 hPa SO 6.5 km/h 11.3 km/h 84% 0.0 mm
05:39 17.8 °C 15.1 °C 1009.7 hPa OSO 6.2 km/h 9.7 km/h 84% 0.0 mm
05:44 17.9 °C 15.1 °C 1009.7 hPa SO 5.8 km/h 11.9 km/h 84% 0.0 mm
05:49 17.9 °C 15.2 °C 1009.9 hPa SO 6.2 km/h 11.3 km/h 84.3% 0.0 mm
05:54 17.9 °C 15.2 °C 1009.9 hPa SO 6.9 km/h 11.3 km/h 84% 0.0 mm
05:59 17.9 °C 15.2 °C 1009.9 hPa SO 6.7 km/h 11.3 km/h 84.2% 0.0 mm
06:04 17.9 °C 15.3 °C 1010.0 hPa SO 6.5 km/h 11.3 km/h 85% 0.0 mm
06:09 17.9 °C 15.3 °C 1010.0 hPa SO 6.5 km/h 11.9 km/h 85% 0.0 mm
06:14 17.8 °C 15.2 °C 1010.0 hPa OSO 6.5 km/h 13 km/h 85% 0.0 mm
06:19 17.8 °C 15.2 °C 1010.0 hPa SO 6.9 km/h 13 km/h 85% 0.0 mm
06:24 17.8 °C 15.2 °C 1009.9 hPa SO 7.6 km/h 11.3 km/h 85% 0.0 mm
06:29 17.8 °C 15.2 °C 1009.9 hPa SO 7.1 km/h 11.3 km/h 85% 0.0 mm
06:34 17.8 °C 15.2 °C 1010.1 hPa SO 6.5 km/h 10 km/h 85% 0.0 mm
06:39 17.8 °C 15.2 °C 1010.1 hPa SSO 6.5 km/h 13.7 km/h 85% 0.0 mm
06:44 17.7 °C 15.2 °C 1010.1 hPa SSO 6.5 km/h 14.5 km/h 85% 0.0 mm
06:49 17.7 °C 15.1 °C 1010.4 hPa SSO 6.6 km/h 12.9 km/h 85% 0.0 mm
06:54 17.6 °C 15.1 °C 1010.4 hPa SSO 6.9 km/h 11.1 km/h 85% 0.0 mm
06:59 17.6 °C 15.2 °C 1010.4 hPa SO 6.5 km/h 11.3 km/h 85.9% 0.0 mm
07:04 17.6 °C 15.2 °C 1010.5 hPa SO 5.8 km/h 9.7 km/h 86% 0.0 mm
07:09 17.7 °C 15.3 °C 1010.5 hPa SO 5.5 km/h 10 km/h 86% 0.0 mm
07:14 17.7 °C 15.2 °C 1010.5 hPa OSO 5 km/h 10 km/h 85.1% 0.0 mm
07:19 17.7 °C 15.2 °C 1010.7 hPa SO 5.7 km/h 11.1 km/h 85% 0.0 mm
07:24 17.7 °C 15.2 °C 1010.7 hPa OSO 6.9 km/h 11.3 km/h 85% 0.0 mm
07:29 17.7 °C 15.2 °C 1010.7 hPa OSO 6.7 km/h 11.3 km/h 85% 0.0 mm
07:34 17.8 °C 15.2 °C 1010.7 hPa OSO 6.5 km/h 11.3 km/h 85% 0.0 mm
07:39 17.8 °C 15.2 °C 1010.7 hPa SSO 6.6 km/h 11.9 km/h 85% 0.0 mm
07:44 17.9 °C 15.4 °C 1010.7 hPa SSO 6.9 km/h 13 km/h 85% 0.0 mm
07:49 18 °C 15.5 °C 1010.9 hPa OSO 6.9 km/h 13 km/h 84.9% 0.0 mm
07:54 18.1 °C 15.3 °C 1010.9 hPa SO 6.9 km/h 10 km/h 84% 0.0 mm
07:59 18.1 °C 15.3 °C 1010.9 hPa SSO 6.9 km/h 11.1 km/h 84% 0.0 mm
08:04 18.1 °C 15.3 °C 1011.1 hPa SSO 6.9 km/h 14.8 km/h 83.7% 0.0 mm
08:09 18.2 °C 15.3 °C 1011.1 hPa SSO 7.5 km/h 14.5 km/h 83% 0.0 mm
08:14 18.2 °C 15.2 °C 1011.1 hPa SO 8.4 km/h 13.7 km/h 82.8% 0.0 mm
08:19 18.2 °C 15.1 °C 1011.4 hPa SSO 7.8 km/h 14.5 km/h 82% 0.0 mm
08:24 18.3 °C 15 °C 1011.4 hPa SSO 6.9 km/h 14.8 km/h 81.2% 0.0 mm
08:29 18.3 °C 14.9 °C 1011.4 hPa SO 7.5 km/h 14.5 km/h 80.5% 0.0 mm
08:34 18.5 °C 14.8 °C 1011.5 hPa SSO 8.4 km/h 14.8 km/h 79.2% 0.0 mm
08:39 18.6 °C 14.7 °C 1011.5 hPa SO 8.8 km/h 17.2 km/h 78% 0.0 mm
08:44 18.8 °C 14.8 °C 1011.5 hPa SO 9.5 km/h 17.7 km/h 77.5% 0.0 mm
08:49 19 °C 14.8 °C 1011.7 hPa SSO 8.5 km/h 15.6 km/h 76.7% 0.0 mm
08:54 19.2 °C 14.9 °C 1011.7 hPa SO 6.9 km/h 16.1 km/h 76% 0.0 mm
08:59 19.3 °C 14.8 °C 1011.7 hPa SO 7.6 km/h 14.5 km/h 74.9% 0.0 mm
09:04 19.5 °C 14.7 °C 1011.7 hPa SO 8.4 km/h 12.9 km/h 73.6% 0.0 mm
09:09 19.7 °C 14.6 °C 1011.6 hPa OSO 7.8 km/h 13.7 km/h 72.5% 0.0 mm
09:14 19.8 °C 14.5 °C 1011.6 hPa OSO 6.9 km/h 14.5 km/h 71.3% 0.0 mm
09:19 20 °C 14.3 °C 1011.8 hPa OSO 6.7 km/h 14.8 km/h 70% 0.0 mm
09:24 20.1 °C 14.3 °C 1011.8 hPa SO 6.5 km/h 14.8 km/h 69.5% 0.0 mm
09:29 20.2 °C 14.2 °C 1011.8 hPa SO 7.2 km/h 14.5 km/h 68.6% 0.0 mm
09:34 20.3 °C 14.1 °C 1012.0 hPa OSO 8.4 km/h 11.9 km/h 67.3% 0.0 mm
09:39 20.6 °C 13.7 °C 1012.0 hPa SO 8.1 km/h 20.4 km/h 64.6% 0.0 mm
09:44 20.8 °C 13.7 °C 1012.0 hPa SO 7.6 km/h 20.9 km/h 63.7% 0.0 mm
09:49 21 °C 13.6 °C 1012.1 hPa OSO 7.3 km/h 13 km/h 62.4% 0.0 mm
09:54 21.1 °C 13.5 °C 1012.1 hPa OSO 6.9 km/h 14.8 km/h 62% 0.0 mm
09:59 21.2 °C 13.5 °C 1012.1 hPa SSO 7.6 km/h 16.7 km/h 61.4% 0.0 mm
10:04 21.2 °C 13.3 °C 1012.3 hPa SSO 8.4 km/h 16.1 km/h 60.6% 0.0 mm
10:09 21.3 °C 13.1 °C 1012.3 hPa SO 8.8 km/h 16.7 km/h 59.7% 0.0 mm
10:14 21.5 °C 12.9 °C 1012.3 hPa SO 9.5 km/h 16.1 km/h 58.3% 0.0 mm
10:19 21.7 °C 12.5 °C 1012.3 hPa SSO 9.1 km/h 20.4 km/h 55.7% 0.0 mm
10:24 21.8 °C 12.4 °C 1012.2 hPa OSO 8.4 km/h 20.9 km/h 55% 0.0 mm
10:29 22.1 °C 12 °C 1012.2 hPa SO 8.4 km/h 14.8 km/h 52.6% 0.0 mm
10:34 22.2 °C 11.8 °C 1012.3 hPa OSO 8.4 km/h 14.8 km/h 51.5% 0.0 mm
10:39 22.4 °C 12 °C 1012.3 hPa SO 8.5 km/h 16.7 km/h 52% 0.0 mm
10:44 22.4 °C 11.9 °C 1012.3 hPa OSO 8.7 km/h 16.7 km/h 51.4% 0.0 mm
10:49 22.6 °C 12 °C 1012.3 hPa Oeste 8.3 km/h 16.1 km/h 51.1% 0.0 mm
10:54 22.7 °C 11.3 °C 1012.3 hPa ONO 7.6 km/h 16.7 km/h 48.5% 0.0 mm
10:59 23 °C 11.4 °C 1012.3 hPa OSO 8 km/h 16.7 km/h 47.9% 0.0 mm
11:04 23.2 °C 11 °C 1012.3 hPa OSO 8.7 km/h 16.1 km/h 46% 0.0 mm
11:09 23.6 °C 11.2 °C 1012.3 hPa Oeste 7.8 km/h 14.5 km/h 45.8% 0.0 mm
11:14 23.9 °C 10.3 °C 1012.3 hPa OSO 6.5 km/h 22.2 km/h 42.1% 0.0 mm
11:19 24.1 °C 9.7 °C 1012.4 hPa OSO 7.6 km/h 22.5 km/h 40.2% 0.0 mm
11:24 24.2 °C 10 °C 1012.4 hPa SO 9.5 km/h 17.7 km/h 41% 0.0 mm
11:29 24.3 °C 10.1 °C 1012.4 hPa OSO 9.1 km/h 14.5 km/h 40.7% 0.0 mm
11:34 24.4 °C 10 °C 1012.5 hPa SO 8.4 km/h 14.5 km/h 40% 0.0 mm
11:39 24.7 °C 10.1 °C 1012.5 hPa NE 7 km/h 13 km/h 39.7% 0.0 mm
11:44 24.9 °C 9.9 °C 1012.5 hPa SO 5 km/h 10 km/h 38.9% 0.0 mm
11:49 25.2 °C 10.1 °C 1012.5 hPa Oeste 4.5 km/h 9.7 km/h 38.7% 0.0 mm
11:54 25.5 °C 9.9 °C 1012.5 hPa North 3.9 km/h 9.7 km/h 37.4% 0.0 mm
11:59 25.8 °C 9.6 °C 1012.5 hPa SO 4.3 km/h 15.6 km/h 36.1% 0.0 mm
12:04 25.9 °C 9.5 °C 1012.5 hPa SO 5 km/h 16.1 km/h 35.7% 0.0 mm
12:09 25.9 °C 9.4 °C 1012.4 hPa SSO 5.7 km/h 12.9 km/h 35.3% 0.0 mm
12:14 25.9 °C 9.6 °C 1012.4 hPa SO 6.9 km/h 11.3 km/h 35.7% 0.0 mm
12:19 26 °C 9.4 °C 1012.6 hPa SSO 6.7 km/h 11.3 km/h 35.1% 0.0 mm
12:24 26 °C 9.4 °C 1012.6 hPa North 6.5 km/h 11.3 km/h 35.2% 0.0 mm
12:29 26 °C 9.4 °C 1012.6 hPa OSO 5.9 km/h 11.3 km/h 35% 0.0 mm
12:34 26.2 °C 9.6 °C 1012.6 hPa SSE 5 km/h 9.5 km/h 35% 0.0 mm
12:39 26.6 °C 9.6 °C 1012.6 hPa SE 4.9 km/h 10 km/h 34.5% 0.0 mm
12:44 26.8 °C 9.6 °C 1012.6 hPa SE 4.7 km/h 9.7 km/h 33.9% 0.0 mm
12:49 26.9 °C 9.3 °C 1012.6 hPa SO 5.4 km/h 14.8 km/h 33.2% 0.0 mm
12:54 26.9 °C 9.3 °C 1012.6 hPa OSO 6.5 km/h 14.8 km/h 33% 0.0 mm
12:59 26.9 °C 9.3 °C 1012.6 hPa SO 6.5 km/h 12.9 km/h 33% 0.0 mm
13:04 26.9 °C 9.1 °C 1012.6 hPa Oeste 6.5 km/h 11.1 km/h 32.7% 0.0 mm
13:09 27.1 °C 9.1 °C 1012.5 hPa North 5.9 km/h 11.3 km/h 32.2% 0.0 mm
13:14 27.1 °C 8.9 °C 1012.5 hPa NNE 5 km/h 11.3 km/h 31.8% 0.0 mm
13:19 27.3 °C 8.9 °C 1012.5 hPa NE 5 km/h 11.1 km/h 31.6% 0.0 mm
13:24 27.4 °C 8.8 °C 1012.5 hPa SO 5 km/h 13 km/h 31% 0.0 mm
13:29 27.5 °C 8.9 °C 1012.5 hPa Oeste 5.7 km/h 14.8 km/h 31% 0.0 mm
13:34 27.6 °C 8.7 °C 1012.5 hPa Oeste 6.9 km/h 14.8 km/h 30.4% 0.0 mm
13:39 27.7 °C 8.6 °C 1012.4 hPa SO 6.5 km/h 14.5 km/h 30.1% 0.0 mm
13:44 27.7 °C 8.6 °C 1012.4 hPa SSE 5.8 km/h 11.1 km/h 30.1% 0.0 mm
13:49 27.7 °C 8.8 °C 1012.4 hPa ESE 5.8 km/h 11.3 km/h 30.5% 0.0 mm
13:54 28 °C 9 °C 1012.3 hPa ESE 5.8 km/h 17.2 km/h 30.4% 0.0 mm
13:59 28.1 °C 9 °C 1012.3 hPa Este 7 km/h 18.3 km/h 30.4% 0.0 mm
14:04 28 °C 8.9 °C 1012.3 hPa ENE 8.7 km/h 19.3 km/h 30.2% 0.0 mm
14:09 28.1 °C 9.1 °C 1012.2 hPa Este 8.7 km/h 17.2 km/h 30.4% 0.0 mm
14:14 28.2 °C 9 °C 1012.2 hPa ESE 8.7 km/h 17.7 km/h 30% 0.0 mm
14:19 28.4 °C 9.1 °C 1012.2 hPa ENE 8 km/h 14.5 km/h 29.9% 0.0 mm
14:24 28.6 °C 8.9 °C 1012.2 hPa NNE 6.9 km/h 12.9 km/h 29.1% 0.0 mm
14:29 28.6 °C 8.8 °C 1012.2 hPa NE 6.9 km/h 13 km/h 29% 0.0 mm
14:34 28.4 °C 8.8 °C 1012.2 hPa NE 6.9 km/h 12.9 km/h 29.2% 0.0 mm
14:39 28.5 °C 8.8 °C 1012.0 hPa NE 6.5 km/h 11.1 km/h 29.2% 0.0 mm
14:44 28.9 °C 9 °C 1012.0 hPa ONO 5.8 km/h 11.3 km/h 28.9% 0.0 mm
14:49 29.2 °C 8.8 °C 1012.0 hPa NNO 5.5 km/h 11.3 km/h 28% 0.0 mm
14:54 29.2 °C 8.8 °C 1011.8 hPa NNE 5 km/h 13 km/h 28% 0.0 mm
14:59 29.1 °C 9.2 °C 1011.8 hPa NE 6.4 km/h 20.4 km/h 28.8% 0.0 mm
15:04 28.9 °C 9.3 °C 1011.8 hPa NE 8.4 km/h 20.9 km/h 29.4% 0.0 mm
15:09 29 °C 9.3 °C 1011.8 hPa NE 9.6 km/h 20.9 km/h 29.2% 0.0 mm
15:14 29.2 °C 9.3 °C 1011.8 hPa NNE 11.9 km/h 18 km/h 29% 0.0 mm
15:19 29.4 °C 9.5 °C 1011.8 hPa ENE 9.9 km/h 19.3 km/h 29% 0.0 mm
15:24 29.6 °C 9.7 °C 1011.7 hPa ESE 6.5 km/h 19.3 km/h 29% 0.0 mm
15:29 29.7 °C 9.5 °C 1011.7 hPa SSE 7.7 km/h 16.7 km/h 28.5% 0.0 mm
15:34 29.7 °C 11 °C 1011.7 hPa ESE 9.5 km/h 31.5 km/h 31.6% 0.0 mm
15:39 29.6 °C 12.7 °C 1011.6 hPa ESE 11.2 km/h 32.2 km/h 35.4% 0.0 mm
15:44 29.4 °C 12.6 °C 1011.6 hPa ESE 14 km/h 37 km/h 35.7% 0.0 mm
15:49 29.1 °C 12.4 °C 1011.9 hPa ESE 16.3 km/h 37 km/h 35.9% 0.0 mm
15:54 29.1 °C 12.5 °C 1011.9 hPa SE 20.1 km/h 29.8 km/h 36% 0.0 mm
15:59 29 °C 12.6 °C 1011.9 hPa SE 18.7 km/h 33.3 km/h 36.4% 0.0 mm
16:04 29.1 °C 12.5 °C 1011.9 hPa ESE 16.4 km/h 34.3 km/h 36% 0.0 mm
16:09 29 °C 12.4 °C 1011.6 hPa ESE 17.4 km/h 33.8 km/h 36% 0.0 mm
16:14 28.8 °C 12 °C 1011.6 hPa ESE 19 km/h 35.2 km/h 35.5% 0.0 mm
16:19 28.7 °C 11.8 °C 1011.8 hPa ESE 20 km/h 35.4 km/h 35% 0.0 mm
16:24 28.7 °C 11.8 °C 1011.8 hPa ESE 21.7 km/h 33.8 km/h 35% 0.0 mm
16:29 28.9 °C 11.6 °C 1011.8 hPa ESE 20.4 km/h 31.5 km/h 34.3% 0.0 mm
16:34 29 °C 11.2 °C 1011.8 hPa ESE 18.4 km/h 35.2 km/h 33.2% 0.0 mm
16:39 28.8 °C 10.9 °C 1011.8 hPa ESE 19.6 km/h 35.4 km/h 33% 0.0 mm
16:44 28.8 °C 10.9 °C 1011.8 hPa SE 21.7 km/h 37 km/h 33% 0.0 mm
16:49 28.8 °C 11 °C 1011.8 hPa ESE 21 km/h 40.7 km/h 33% 0.0 mm
16:54 28.7 °C 10.9 °C 1011.7 hPa SE 19.8 km/h 40.7 km/h 33.1% 0.0 mm
16:59 28.7 °C 10.9 °C 1011.7 hPa SE 20.8 km/h 40.2 km/h 33.2% 0.0 mm
17:04 28.7 °C 10.8 °C 1011.8 hPa ESE 22.1 km/h 32.2 km/h 33% 0.0 mm
17:09 28.7 °C 10.8 °C 1011.8 hPa ESE 21.3 km/h 33.3 km/h 33% 0.0 mm
17:14 28.6 °C 10.7 °C 1011.8 hPa ESE 20.1 km/h 35.2 km/h 32.8% 0.0 mm
17:19 28.6 °C 10.6 °C 1011.8 hPa ESE 19.7 km/h 35.9 km/h 32.7% 0.0 mm
17:24 28.3 °C 10.1 °C 1011.8 hPa ESE 19 km/h 38.9 km/h 32.1% 0.0 mm
17:29 28.3 °C 10.2 °C 1011.8 hPa ESE 20.2 km/h 38.6 km/h 32.4% 0.0 mm
17:34 28.6 °C 10.3 °C 1011.9 hPa ESE 22.1 km/h 33.8 km/h 32% 0.0 mm
17:39 28.6 °C 10.3 °C 1011.9 hPa SE 20.2 km/h 32.2 km/h 31.9% 0.0 mm
17:44 28.4 °C 9.7 °C 1011.9 hPa ESE 17.2 km/h 32.2 km/h 31.1% 0.0 mm
17:49 28.3 °C 9.7 °C 1011.9 hPa ESE 18.4 km/h 33.3 km/h 31.3% 0.0 mm
17:54 28.2 °C 9.6 °C 1011.9 hPa ESE 20.1 km/h 35.9 km/h 31.2% 0.0 mm
17:59 28.1 °C 9.4 °C 1011.9 hPa ESE 20.4 km/h 35.4 km/h 31% 0.0 mm
18:04 28 °C 9.2 °C 1012.1 hPa ESE 20.9 km/h 34.3 km/h 30.9% 0.0 mm
18:09 28.1 °C 9.1 °C 1012.1 hPa ESE 20.5 km/h 33.8 km/h 30.5% 0.0 mm
18:14 28.2 °C 9 °C 1012.1 hPa ESE 19.8 km/h 28.2 km/h 30% 0.0 mm
18:19 28.1 °C 8.9 °C 1012.2 hPa ESE 18.8 km/h 34.3 km/h 30% 0.0 mm
18:24 28.1 °C 9 °C 1012.2 hPa ESE 17.2 km/h 33.8 km/h 30.2% 0.0 mm
18:29 28.2 °C 8.9 °C 1012.2 hPa ESE 17.2 km/h 33.8 km/h 30% 0.0 mm
18:34 28.1 °C 8.9 °C 1012.3 hPa ESE 17.2 km/h 30.6 km/h 30% 0.0 mm
18:39 28.1 °C 8.6 °C 1012.3 hPa SE 17.5 km/h 29 km/h 29.4% 0.0 mm
18:44 28 °C 8.6 °C 1012.3 hPa SE 18 km/h 29.6 km/h 29.5% 0.0 mm
18:49 27.9 °C 8.2 °C 1012.4 hPa ESE 18.2 km/h 33.3 km/h 29% 0.0 mm
18:54 27.8 °C 8 °C 1012.4 hPa ESE 18.4 km/h 33.8 km/h 28.8% 0.0 mm
18:59 27.8 °C 7.9 °C 1012.4 hPa ESE 17.5 km/h 27.8 km/h 28.6% 0.0 mm
19:04 27.8 °C 7.7 °C 1012.4 hPa ESE 16.4 km/h 27.8 km/h 28.1% 0.0 mm
19:09 27.7 °C 7.9 °C 1012.4 hPa ESE 16.7 km/h 27.4 km/h 28.7% 0.0 mm
19:14 27.7 °C 8 °C 1012.4 hPa ESE 17.2 km/h 29.6 km/h 29% 0.0 mm
19:19 27.5 °C 7.9 °C 1012.6 hPa ESE 16.8 km/h 29 km/h 29% 0.0 mm
19:24 27.6 °C 7.9 °C 1012.6 hPa SE 16.1 km/h 25.9 km/h 28.9% 0.0 mm
19:29 27.6 °C 7.6 °C 1012.6 hPa ESE 15.6 km/h 26.2 km/h 28.4% 0.0 mm
19:34 27.4 °C 7.3 °C 1012.7 hPa ESE 14.8 km/h 27.8 km/h 28% 0.0 mm
19:39 27.4 °C 7.2 °C 1012.7 hPa ESE 15.3 km/h 27.4 km/h 28% 0.0 mm
19:44 27.3 °C 7.2 °C 1012.7 hPa ESE 16.1 km/h 25.7 km/h 28% 0.0 mm
19:49 27.3 °C 7.1 °C 1012.9 hPa ESE 15.3 km/h 24.1 km/h 27.9% 0.0 mm
19:54 27.3 °C 7 °C 1012.9 hPa ESE 14 km/h 24.1 km/h 27.6% 0.0 mm
19:59 27.2 °C 7.1 °C 1012.9 hPa ESE 13.9 km/h 24.1 km/h 27.9% 0.0 mm
20:04 27.1 °C 7 °C 1013.0 hPa ESE 13.7 km/h 22.5 km/h 27.9% 0.0 mm
20:09 27 °C 6.9 °C 1013.0 hPa ESE 13.7 km/h 22.5 km/h 28% 0.0 mm
20:14 27 °C 6.9 °C 1013.0 hPa ESE 13.7 km/h 20.9 km/h 28% 0.0 mm
20:19 26.8 °C 6.8 °C 1013.3 hPa ESE 13.4 km/h 20.9 km/h 28% 0.0 mm
20:24 26.8 °C 6.7 °C 1013.3 hPa ESE 13 km/h 20.9 km/h 28% 0.0 mm
20:29 26.7 °C 6.7 °C 1013.3 hPa ESE 12.7 km/h 19.3 km/h 28% 0.0 mm
20:34 26.7 °C 6.6 °C 1013.4 hPa SE 12.2 km/h 20.4 km/h 28% 0.0 mm
20:39 26.6 °C 6.6 °C 1013.4 hPa SE 12.2 km/h 20.9 km/h 28% 0.0 mm
20:44 26.5 °C 6.5 °C 1013.4 hPa ESE 12.2 km/h 19.3 km/h 28% 0.0 mm
20:49 26.4 °C 6.4 °C 1013.5 hPa ESE 11.2 km/h 16.7 km/h 28% 0.0 mm
20:54 26.3 °C 6.8 °C 1013.5 hPa ESE 9.5 km/h 16.1 km/h 28.9% 0.0 mm
20:59 26.2 °C 7 °C 1013.5 hPa ESE 9.5 km/h 16.1 km/h 29.5% 0.0 mm
21:04 25.9 °C 7 °C 1013.9 hPa ESE 9.5 km/h 18 km/h 30% 0.0 mm
21:09 25.8 °C 6.9 °C 1013.9 hPa ESE 9.8 km/h 19.3 km/h 30% 0.0 mm
21:14 25.7 °C 6.8 °C 1013.9 hPa ESE 10.3 km/h 19.3 km/h 30% 0.0 mm
21:19 25.5 °C 6.7 °C 1014.1 hPa ESE 9.7 km/h 13.7 km/h 30% 0.0 mm
21:24 25.4 °C 6.5 °C 1014.1 hPa Este 8.7 km/h 14.5 km/h 30% 0.0 mm
21:29 25.3 °C 6.4 °C 1014.1 hPa Este 8.7 km/h 15.6 km/h 29.9% 0.0 mm
21:34 25.2 °C 6.1 °C 1014.3 hPa Este 8.7 km/h 16.1 km/h 29.4% 0.0 mm
21:39 25.1 °C 6 °C 1014.3 hPa Este 8.7 km/h 14.8 km/h 29.4% 0.0 mm
21:44 25.1 °C 5.8 °C 1014.3 hPa Este 8.7 km/h 14.8 km/h 29.1% 0.0 mm
21:49 24.9 °C 5.7 °C 1014.4 hPa ESE 9 km/h 14.8 km/h 29% 0.0 mm
21:54 24.9 °C 5.8 °C 1014.4 hPa ESE 9.5 km/h 14.5 km/h 29.5% 0.0 mm
21:59 24.8 °C 6.1 °C 1014.4 hPa Este 8.7 km/h 14.8 km/h 30% 0.0 mm
22:04 24.7 °C 6 °C 1014.6 hPa Este 7.6 km/h 14.5 km/h 30% 0.0 mm
22:09 24.7 °C 6.1 °C 1014.6 hPa Este 7.3 km/h 11.3 km/h 30.2% 0.0 mm
22:14 24.6 °C 6.4 °C 1014.6 hPa NE 6.9 km/h 9.7 km/h 31% 0.0 mm
22:19 24.5 °C 6.8 °C 1014.9 hPa NE 6.5 km/h 9.7 km/h 32.3% 0.0 mm
22:24 24.3 °C 7.3 °C 1014.9 hPa NE 5.8 km/h 10.3 km/h 33.5% 0.0 mm
22:29 24.2 °C 7.6 °C 1014.9 hPa NE 6.2 km/h 11.9 km/h 34.5% 0.0 mm
22:34 24.1 °C 8.2 °C 1015.1 hPa NE 6.9 km/h 12.2 km/h 36.2% 0.0 mm
22:39 23.9 °C 8.4 °C 1015.1 hPa NNE 7.5 km/h 13 km/h 37.1% 0.0 mm
22:44 23.7 °C 8.7 °C 1015.1 hPa NNE 8.4 km/h 13 km/h 38.2% 0.0 mm
22:49 23.4 °C 8.7 °C 1015.6 hPa NE 8.4 km/h 14.8 km/h 39% 0.0 mm
22:54 23.2 °C 8.9 °C 1015.6 hPa NNE 8.4 km/h 23.3 km/h 40.3% 0.0 mm
22:59 22.8 °C 10.1 °C 1015.6 hPa NE 9.9 km/h 24.1 km/h 44.5% 0.0 mm
23:04 22.5 °C 11.5 °C 1015.9 hPa NE 11.9 km/h 22.5 km/h 50% 0.0 mm
23:09 22.2 °C 12.8 °C 1015.9 hPa NE 12 km/h 25.9 km/h 55.2% 0.0 mm
23:14 21.9 °C 13.8 °C 1015.9 hPa NE 12.2 km/h 25.7 km/h 60% 0.0 mm
23:19 21.7 °C 14.4 °C 1016.2 hPa NNE 12.9 km/h 24.1 km/h 63.4% 0.0 mm
23:24 21.4 °C 14.8 °C 1016.2 hPa NE 14 km/h 24.1 km/h 65.8% 0.0 mm
23:29 21.3 °C 14.8 °C 1016.2 hPa NE 14 km/h 20.9 km/h 66.5% 0.0 mm
23:34 21.2 °C 14.3 °C 1016.3 hPa NE 14 km/h 20.9 km/h 64.8% 0.0 mm
23:39 21.2 °C 14.1 °C 1016.3 hPa NE 13.3 km/h 20.9 km/h 64% 0.0 mm
23:44 21.2 °C 14.1 °C 1016.3 hPa NE 12.2 km/h 19.3 km/h 64% 0.0 mm
23:49 21.1 °C 14.4 °C 1016.5 hPa NE 11.5 km/h 19.3 km/h 65.4% 0.0 mm
23:54 21.1 °C 14.6 °C 1016.5 hPa NE 10.3 km/h 16.1 km/h 66.6% 0.0 mm
23:59 21 °C 14.8 °C 1016.5 hPa NNE 10.3 km/h 15.6 km/h 67.7% 0.0 mm
Murcia-Puente Tocinos, España
Compliments of Weather Underground - 3 mb

La estación de MeteoMurcia.com, publica sus datos en los siguientes proyectos:

Weather Underground PWS IMURCIAP2 Meteoclimatic www.awekas.at

W3Counter
Web Analytics